createdAt,value
2018-03-22T00:01:02.334Z,0.39
2018-03-22T00:02:12.464Z,0.34
2018-03-22T00:03:22.574Z,0.33
2018-03-22T00:04:32.412Z,0.33
2018-03-22T00:05:42.540Z,0.24
2018-03-22T00:06:52.653Z,0.13
2018-03-22T00:08:02.783Z,0.09
2018-03-22T00:09:12.351Z,0.18
2018-03-22T00:10:22.468Z,0.12
2018-03-22T00:11:32.588Z,0.13
2018-03-22T00:12:42.431Z,0.12
2018-03-22T00:13:52.268Z,0.06
2018-03-22T00:15:02.159Z,0.09
2018-03-22T00:16:11.447Z,0.01
2018-03-22T00:17:21.286Z,0.06
2018-03-22T00:18:31.403Z,-0.05
2018-03-22T00:19:41.239Z,-0.1
2018-03-22T00:20:51.361Z,-0.03
2018-03-22T00:22:01.208Z,-0.15
2018-03-22T00:23:11.339Z,-0.12
2018-03-22T00:24:21.474Z,-0.13
2018-03-22T00:25:31.244Z,-0.2
2018-03-22T00:26:41.264Z,-0.18
2018-03-22T00:27:51.287Z,-0.28
2018-03-22T00:29:01.310Z,-0.27
2018-03-22T00:30:11.051Z,-0.26
2018-03-22T00:31:20.531Z,-0.27
2018-03-22T00:32:30.276Z,-0.28
2018-03-22T00:33:40.057Z,-0.41
2018-03-22T00:34:49.795Z,-0.36
2018-03-22T00:35:59.530Z,-0.3
2018-03-22T00:37:09.271Z,-0.3
2018-03-22T00:38:19.278Z,-0.28
2018-03-22T00:39:29.284Z,-0.2
2018-03-22T00:40:38.737Z,-0.28
2018-03-22T00:41:48.737Z,-0.3
2018-03-22T00:42:58.467Z,-0.31
2018-03-22T00:44:07.922Z,-0.41
2018-03-22T00:45:17.646Z,-0.51
2018-03-22T00:46:27.107Z,-0.42
2018-03-22T00:47:37.095Z,-0.53
2018-03-22T00:48:46.816Z,-0.59
2018-03-22T00:49:56.833Z,-0.51
2018-03-22T00:51:06.601Z,-0.6
2018-03-22T00:52:16.600Z,-0.62
2018-03-22T00:53:26.060Z,-0.57
2018-03-22T00:54:36.054Z,-0.67
2018-03-22T00:55:46.047Z,-0.69
2018-03-22T00:56:56.036Z,-0.64
2018-03-22T00:58:05.758Z,-0.77
2018-03-22T00:59:15.224Z,-0.63
2018-03-22T01:00:25.315Z,-0.66
2018-03-22T01:01:34.776Z,-0.62
2018-03-22T01:02:44.774Z,-0.66
2018-03-22T01:03:54.759Z,-0.67
2018-03-22T01:05:04.751Z,-0.69
2018-03-22T01:06:14.480Z,-0.67
2018-03-22T01:07:23.935Z,-0.7
2018-03-22T01:08:33.396Z,-0.69
2018-03-22T01:09:43.117Z,-0.75
2018-03-22T01:10:53.107Z,-0.74
2018-03-22T01:12:02.830Z,-0.77
2018-03-22T01:13:12.552Z,-0.7
2018-03-22T01:14:22.284Z,-0.78
2018-03-22T01:15:31.738Z,-0.81
2018-03-22T01:16:41.481Z,-0.81
2018-03-22T01:17:50.671Z,-0.89
2018-03-22T01:19:00.406Z,-0.85
2018-03-22T01:20:09.595Z,-0.87
2018-03-22T01:21:19.319Z,-0.84
2018-03-22T01:22:28.784Z,-0.87
2018-03-22T01:23:38.790Z,-0.97
2018-03-22T01:24:48.786Z,-1.01
2018-03-22T01:25:58.780Z,-1.04
2018-03-22T01:27:08.506Z,-1.07
2018-03-22T01:28:18.229Z,-1.17
2018-03-22T01:29:27.426Z,-1.21
2018-03-22T01:30:37.150Z,-1.29
2018-03-22T01:31:47.149Z,-1.45
2018-03-22T01:32:57.144Z,-1.6
2018-03-22T01:34:07.152Z,-1.66
2018-03-22T01:35:16.982Z,-1.64
2018-03-22T01:36:26.438Z,-1.71
2018-03-22T01:37:36.161Z,-1.71
2018-03-22T01:38:45.890Z,-1.69
2018-03-22T01:39:55.940Z,-1.69
2018-03-22T01:41:05.660Z,-1.68
2018-03-22T01:42:15.647Z,-1.66
2018-03-22T01:43:25.378Z,-1.68
2018-03-22T01:44:34.837Z,-1.68
2018-03-22T01:45:44.623Z,-1.64
2018-03-22T01:46:54.363Z,-1.57
2018-03-22T01:48:04.133Z,-1.54
2018-03-22T01:49:14.124Z,-1.51
2018-03-22T01:50:24.125Z,-1.58
2018-03-22T01:51:33.848Z,-1.64
2018-03-22T01:52:43.884Z,-1.66
2018-03-22T01:53:53.885Z,-1.61
2018-03-22T01:55:03.076Z,-1.66
2018-03-22T01:56:12.816Z,-1.66
2018-03-22T01:57:22.820Z,-1.63
2018-03-22T01:58:32.281Z,-1.68
2018-03-22T01:59:42.272Z,-1.63
2018-03-22T02:00:51.731Z,-1.63
2018-03-22T02:02:01.448Z,-1.66
2018-03-22T02:03:11.173Z,-1.64
2018-03-22T02:04:21.174Z,-1.64
2018-03-22T02:05:30.630Z,-1.63
2018-03-22T02:06:40.630Z,-1.71
2018-03-22T02:07:50.644Z,-1.68
2018-03-22T02:09:00.699Z,-1.68
2018-03-22T02:10:10.575Z,-1.68
2018-03-22T02:11:20.372Z,-1.74
2018-03-22T02:12:30.376Z,-1.71
2018-03-22T02:13:40.369Z,-1.79
2018-03-22T02:14:50.104Z,-1.81
2018-03-22T02:16:00.102Z,-1.78
2018-03-22T02:17:09.567Z,-1.75
2018-03-22T02:18:19.026Z,-1.94
2018-03-22T02:19:28.482Z,-1.89
2018-03-22T02:20:38.216Z,-2.02
2018-03-22T02:21:47.678Z,-2.02
2018-03-22T02:22:57.406Z,-2
2018-03-22T02:24:07.134Z,-2.11
2018-03-22T02:25:16.854Z,-2.11
2018-03-22T02:26:26.586Z,-2.15
2018-03-22T02:27:36.586Z,-2.23
2018-03-22T02:28:46.576Z,-2.25
2018-03-22T02:29:56.307Z,-2.2
2018-03-22T02:31:06.063Z,-2.23
2018-03-22T02:32:16.119Z,-2.18
2018-03-22T02:33:25.851Z,-2.2
2018-03-22T02:34:35.588Z,-2.32
2018-03-22T02:35:45.327Z,-2.37
2018-03-22T02:36:55.053Z,-2.32
2018-03-22T02:38:04.788Z,-2.4
2018-03-22T02:39:14.252Z,-2.47
2018-03-22T02:40:24.263Z,-2.44
2018-03-22T02:41:34.262Z,-2.44
2018-03-22T02:42:44.325Z,-2.42
2018-03-22T02:43:53.539Z,-2.47
2018-03-22T02:45:02.466Z,-2.51
2018-03-22T02:46:12.494Z,-2.48
2018-03-22T02:47:22.526Z,-2.51
2018-03-22T02:48:32.533Z,-2.55
2018-03-22T02:49:42.299Z,-2.52
2018-03-22T02:50:52.022Z,-2.52
2018-03-22T02:52:02.039Z,-2.57
2018-03-22T02:53:12.077Z,-2.62
2018-03-22T02:54:21.809Z,-2.65
2018-03-22T02:55:31.274Z,-2.69
2018-03-22T02:56:41.280Z,-2.72
2018-03-22T02:57:51.017Z,-2.58
2018-03-22T02:59:01.033Z,-2.61
2018-03-22T03:00:10.235Z,-2.61
2018-03-22T03:01:19.985Z,-2.51
2018-03-22T03:02:30.008Z,-2.55
2018-03-22T03:03:39.470Z,-2.55
2018-03-22T03:04:49.216Z,-2.5
2018-03-22T03:05:58.690Z,-2.42
2018-03-22T03:07:08.155Z,-2.45
2018-03-22T03:08:17.876Z,-2.34
2018-03-22T03:09:27.603Z,-2.4
2018-03-22T03:10:37.594Z,-2.4
2018-03-22T03:11:47.317Z,-2.4
2018-03-22T03:12:56.510Z,-2.42
2018-03-22T03:14:06.019Z,-2.36
2018-03-22T03:15:15.485Z,-2.28
2018-03-22T03:16:25.495Z,-2.25
2018-03-22T03:17:35.222Z,-2.23
2018-03-22T03:18:44.682Z,-2.13
2018-03-22T03:19:54.676Z,-2.1
2018-03-22T03:21:04.402Z,-2
2018-03-22T03:22:13.866Z,-2.02
2018-03-22T03:23:23.859Z,-2
2018-03-22T03:24:33.590Z,-2.02
2018-03-22T03:25:43.581Z,-2.02
2018-03-22T03:26:53.312Z,-2.02
2018-03-22T03:28:03.042Z,-2.02
2018-03-22T03:29:12.494Z,-2
2018-03-22T03:30:22.463Z,-2.04
2018-03-22T03:31:32.310Z,-2.04
2018-03-22T03:32:42.036Z,-2.05
2018-03-22T03:33:52.034Z,-2.08
2018-03-22T03:35:01.764Z,-2.1
2018-03-22T03:36:11.230Z,-2.08
2018-03-22T03:37:20.978Z,-2.11
2018-03-22T03:38:30.977Z,-2.14
2018-03-22T03:39:40.966Z,-2.14
2018-03-22T03:40:50.698Z,-2.15
2018-03-22T03:42:00.748Z,-2.14
2018-03-22T03:43:10.215Z,-2.13
2018-03-22T03:44:20.214Z,-2.15
2018-03-22T03:45:30.200Z,-2.25
2018-03-22T03:46:40.206Z,-2.13
2018-03-22T03:47:49.929Z,-2.18
2018-03-22T03:48:59.500Z,-2.25
2018-03-22T03:50:08.961Z,-2.36
2018-03-22T03:51:18.756Z,-2.28
2018-03-22T03:52:28.494Z,-2.32
2018-03-22T03:53:38.487Z,-2.36
2018-03-22T03:54:48.269Z,-2.42
2018-03-22T03:55:57.994Z,-2.39
2018-03-22T03:57:07.723Z,-2.4
2018-03-22T03:58:16.918Z,-2.45
2018-03-22T03:59:26.386Z,-2.51
2018-03-22T04:00:36.424Z,-2.51
2018-03-22T04:04:18.730Z,-2.57
2018-03-22T04:05:28.459Z,-2.58
2018-03-22T04:06:38.198Z,-2.55
2018-03-22T04:07:48.197Z,-2.63
2018-03-22T04:08:57.666Z,-2.51
2018-03-22T04:10:07.125Z,-2.5
2018-03-22T04:11:17.119Z,-2.5
2018-03-22T04:12:26.850Z,-2.4
2018-03-22T04:13:36.315Z,-2.42
2018-03-22T04:14:46.043Z,-2.4
2018-03-22T04:15:55.765Z,-2.36
2018-03-22T04:17:05.504Z,-2.26
2018-03-22T04:18:15.230Z,-2.32
2018-03-22T04:19:24.966Z,-2.28
2018-03-22T04:20:34.971Z,-2.23
2018-03-22T04:21:44.983Z,-2.22
2018-03-22T04:22:54.971Z,-2.22
2018-03-22T04:24:04.965Z,-2.25
2018-03-22T04:25:14.959Z,-2.39
2018-03-22T04:26:24.690Z,-2.29
2018-03-22T04:27:34.152Z,-2.34
2018-03-22T04:28:43.876Z,-2.32
2018-03-22T04:29:53.071Z,-2.45
2018-03-22T04:31:02.264Z,-2.39
2018-03-22T04:32:11.722Z,-2.42
2018-03-22T04:33:21.179Z,-2.37
2018-03-22T04:34:30.963Z,-2.4
2018-03-22T04:35:40.966Z,-2.47
2018-03-22T04:36:51.029Z,-2.48
2018-03-22T04:38:01.026Z,-2.48
2018-03-22T04:39:10.486Z,-2.5
2018-03-22T04:40:19.949Z,-2.54
2018-03-22T04:41:29.682Z,-2.66
2018-03-22T04:42:39.402Z,-2.54
2018-03-22T04:43:49.125Z,-2.58
2018-03-22T04:44:59.116Z,-2.54
2018-03-22T04:46:08.573Z,-2.58
2018-03-22T04:47:18.585Z,-2.55
2018-03-22T04:48:28.314Z,-2.55
2018-03-22T04:49:38.312Z,-2.51
2018-03-22T04:50:48.041Z,-2.5
2018-03-22T04:51:57.499Z,-2.48
2018-03-22T04:53:07.592Z,-2.51
2018-03-22T04:54:17.052Z,-2.48
2018-03-22T04:55:27.047Z,-2.52
2018-03-22T04:56:37.040Z,-2.54
2018-03-22T04:57:46.504Z,-2.55
2018-03-22T04:58:56.506Z,-2.63
2018-03-22T05:00:06.236Z,-2.63
2018-03-22T05:01:15.953Z,-2.69
2018-03-22T05:02:25.686Z,-2.65
2018-03-22T05:03:35.412Z,-2.68
2018-03-22T05:04:44.871Z,-2.69
2018-03-22T05:05:54.341Z,-2.69
2018-03-22T05:07:04.374Z,-2.69
2018-03-22T05:08:13.565Z,-2.75
2018-03-22T05:09:23.550Z,-2.69
2018-03-22T05:10:33.345Z,-2.72
2018-03-22T05:11:42.811Z,-2.73
2018-03-22T05:12:52.818Z,-2.8
2018-03-22T05:14:02.548Z,-2.89
2018-03-22T05:15:12.541Z,-2.87
2018-03-22T05:16:22.533Z,-2.84
2018-03-22T05:17:32.525Z,-2.83
2018-03-22T05:18:42.632Z,-2.91
2018-03-22T05:19:52.691Z,-2.98
2018-03-22T05:21:02.423Z,-3.02
2018-03-22T05:22:12.151Z,-2.93
2018-03-22T05:23:21.871Z,-2.96
2018-03-22T05:24:31.605Z,-2.96
2018-03-22T05:25:41.605Z,-2.99
2018-03-22T05:26:51.071Z,-3.01
2018-03-22T05:28:01.071Z,-3.01
2018-03-22T05:29:10.840Z,-2.98
2018-03-22T05:30:20.569Z,-2.98
2018-03-22T05:31:30.296Z,-3.04
2018-03-22T05:32:40.046Z,-3.14
2018-03-22T05:33:50.066Z,-3.09
2018-03-22T05:34:59.533Z,-3.08
2018-03-22T05:36:09.264Z,-3.07
2018-03-22T05:37:18.997Z,-3.11
2018-03-22T05:38:29.007Z,-3.05
2018-03-22T05:39:38.798Z,-3.09
2018-03-22T05:40:48.309Z,-3.11
2018-03-22T05:41:58.325Z,-3.05
2018-03-22T05:43:08.333Z,-3.05
2018-03-22T05:44:18.356Z,-3.02
2018-03-22T05:45:28.455Z,-3.05
2018-03-22T05:46:38.149Z,-3.09
2018-03-22T05:47:47.355Z,-3.09
2018-03-22T05:48:57.096Z,-3.11
2018-03-22T05:50:06.554Z,-3.11
2018-03-22T05:51:16.563Z,-3.05
2018-03-22T05:52:26.041Z,-3.08
2018-03-22T05:53:36.048Z,-3.08
2018-03-22T05:54:45.776Z,-3.12
2018-03-22T05:55:55.247Z,-3.05
2018-03-22T05:57:04.972Z,-3.01
2018-03-22T05:58:14.539Z,-2.98
2018-03-22T05:59:24.356Z,-2.94
2018-03-22T06:00:34.165Z,-2.87
2018-03-22T06:01:43.900Z,-2.84
2018-03-22T06:02:53.892Z,-2.84
2018-03-22T06:04:03.615Z,-2.83
2018-03-22T06:05:13.620Z,-2.84
2018-03-22T06:06:23.347Z,-2.8
2018-03-22T06:07:32.539Z,-2.7
2018-03-22T06:08:42.269Z,-2.68
2018-03-22T06:09:52.313Z,-2.68
2018-03-22T06:11:02.041Z,-2.66
2018-03-22T06:12:11.508Z,-2.69
2018-03-22T06:13:21.269Z,-2.7
2018-03-22T06:14:31.263Z,-2.68
2018-03-22T06:15:41.334Z,-2.65
2018-03-22T06:16:51.422Z,-2.62
2018-03-22T06:18:01.182Z,-2.69
2018-03-22T06:19:10.918Z,-2.73
2018-03-22T06:20:20.647Z,-2.68
2018-03-22T06:21:30.645Z,-2.63
2018-03-22T06:22:40.368Z,-2.63
2018-03-22T06:23:50.093Z,-2.58
2018-03-22T06:25:00.135Z,-2.55
2018-03-22T06:26:09.873Z,-2.52
2018-03-22T06:27:19.866Z,-2.51
2018-03-22T06:28:29.591Z,-2.45
2018-03-22T06:29:38.817Z,-2.47
2018-03-22T06:30:48.606Z,-2.4
2018-03-22T06:31:58.679Z,-2.32
2018-03-22T06:33:08.413Z,-2.36
2018-03-22T06:34:18.407Z,-2.26
2018-03-22T06:35:28.414Z,-2.18
2018-03-22T06:36:37.873Z,-2.14
2018-03-22T06:37:47.440Z,-2.13
2018-03-22T06:38:57.491Z,-2.07
2018-03-22T06:40:07.105Z,-2.05
2018-03-22T06:41:16.915Z,-2.08
2018-03-22T06:42:26.915Z,-1.99
2018-03-22T06:43:36.916Z,-2.04
2018-03-22T06:44:46.907Z,-1.96
2018-03-22T06:45:56.636Z,-1.99
2018-03-22T06:47:06.638Z,-1.94
2018-03-22T06:48:16.374Z,-1.93
2018-03-22T06:49:26.366Z,-1.89
2018-03-22T06:50:36.371Z,-1.87
2018-03-22T06:51:45.574Z,-1.94
2018-03-22T06:52:55.567Z,-1.92
2018-03-22T06:54:05.567Z,-1.97
2018-03-22T06:55:15.297Z,-1.89
2018-03-22T06:56:24.762Z,-1.84
2018-03-22T06:57:34.498Z,-1.84
2018-03-22T06:58:44.240Z,-1.84
2018-03-22T06:59:53.702Z,-1.87
2018-03-22T07:01:03.172Z,-1.89
2018-03-22T07:02:13.168Z,-1.78
2018-03-22T07:03:23.176Z,-1.76
2018-03-22T07:04:33.170Z,-1.79
2018-03-22T07:05:42.905Z,-1.71
2018-03-22T07:06:52.693Z,-1.71
2018-03-22T07:08:02.483Z,-1.64
2018-03-22T07:09:12.209Z,-1.58
2018-03-22T07:10:21.937Z,-1.53
2018-03-22T07:11:31.400Z,-1.53
2018-03-22T07:12:41.397Z,-1.43
2018-03-22T07:13:51.135Z,-1.46
2018-03-22T07:15:01.154Z,-1.39
2018-03-22T07:16:10.899Z,-1.38
2018-03-22T07:17:20.636Z,-1.39
2018-03-22T07:18:30.371Z,-1.39
2018-03-22T07:19:39.564Z,-1.42
2018-03-22T07:20:49.039Z,-1.42
2018-03-22T07:21:58.766Z,-1.43
2018-03-22T07:23:08.507Z,-1.3
2018-03-22T07:24:18.289Z,-1.4
2018-03-22T07:25:28.348Z,-1.4
2018-03-22T07:26:37.896Z,-1.38
2018-03-22T07:27:47.619Z,-1.38
2018-03-22T07:28:57.085Z,-1.3
2018-03-22T07:30:06.557Z,-1.25
2018-03-22T07:31:16.557Z,-1.27
2018-03-22T07:32:26.581Z,-1.29
2018-03-22T07:33:36.593Z,-1.18
2018-03-22T07:34:46.330Z,-1.19
2018-03-22T07:35:56.324Z,-1.15
2018-03-22T07:37:05.812Z,-1.17
2018-03-22T07:38:15.817Z,-1.24
2018-03-22T07:39:25.005Z,-1.12
2018-03-22T07:40:35.080Z,-1.22
2018-03-22T07:41:44.582Z,-1.15
2018-03-22T07:42:54.042Z,-1.12
2018-03-22T07:44:03.506Z,-1.12
2018-03-22T07:45:13.563Z,-1.04
2018-03-22T07:46:23.309Z,-0.97
2018-03-22T07:47:33.091Z,-0.94
2018-03-22T07:48:43.083Z,-0.82
2018-03-22T07:49:52.813Z,-0.87
2018-03-22T07:51:02.812Z,-0.82
2018-03-22T07:52:12.340Z,-0.81
2018-03-22T07:53:22.351Z,-0.72
2018-03-22T07:54:32.345Z,-0.74
2018-03-22T07:55:42.353Z,-0.77
2018-03-22T07:56:52.353Z,-0.67
2018-03-22T07:58:02.084Z,-0.56
2018-03-22T07:59:12.081Z,-0.56
2018-03-22T08:00:21.537Z,-0.48
2018-03-22T08:01:31.540Z,-0.38
2018-03-22T08:02:41.267Z,-0.42
2018-03-22T08:03:50.998Z,-0.28
2018-03-22T08:05:00.464Z,-0.18
2018-03-22T08:06:10.455Z,-0.13
2018-03-22T08:07:19.650Z,-0.07
2018-03-22T08:08:29.109Z,0.12
2018-03-22T08:09:39.101Z,0.06
2018-03-22T08:10:48.940Z,0.05
2018-03-22T08:11:58.675Z,0.09
2018-03-22T08:13:08.668Z,0.2
2018-03-22T08:14:18.662Z,0.23
2018-03-22T08:15:28.126Z,0.24
2018-03-22T08:16:37.856Z,0.33
2018-03-22T08:17:47.599Z,0.31
2018-03-22T08:18:57.331Z,0.34
2018-03-22T08:20:07.080Z,0.44
2018-03-22T08:21:17.088Z,0.48
2018-03-22T08:22:26.813Z,0.55
2018-03-22T08:23:36.551Z,0.61
2018-03-22T08:24:46.297Z,0.63
2018-03-22T08:25:55.772Z,0.7
2018-03-22T08:27:05.503Z,0.68
2018-03-22T08:28:15.331Z,0.78
2018-03-22T08:29:25.424Z,0.96
2018-03-22T08:30:35.056Z,0.96
2018-03-22T08:31:44.787Z,0.95
2018-03-22T08:32:54.522Z,1.09
2018-03-22T08:34:04.252Z,1.06
2018-03-22T08:35:14.251Z,1.14
2018-03-22T08:36:23.985Z,1.21
2018-03-22T08:37:33.727Z,1.28
2018-03-22T08:38:43.733Z,1.36
2018-03-22T08:39:53.470Z,1.32
2018-03-22T08:41:03.474Z,1.48
2018-03-22T08:42:13.257Z,1.49
2018-03-22T08:43:23.253Z,1.53
2018-03-22T08:44:33.265Z,1.5
2018-03-22T08:45:43.048Z,1.53
2018-03-22T08:46:52.512Z,1.64
2018-03-22T08:48:02.245Z,1.6
2018-03-22T08:49:11.440Z,1.7
2018-03-22T08:50:21.184Z,1.68
2018-03-22T08:51:31.269Z,1.76
2018-03-22T08:52:41.009Z,1.89
2018-03-22T08:53:50.736Z,1.88
2018-03-22T08:55:00.467Z,1.98
2018-03-22T08:56:09.930Z,2.05
2018-03-22T08:57:19.703Z,2.04
2018-03-22T08:58:29.166Z,2.05
2018-03-22T08:59:38.898Z,2.23
2018-03-22T09:00:48.722Z,2.25
2018-03-22T09:01:58.455Z,2.23
2018-03-22T09:03:07.921Z,2.25
2018-03-22T09:04:17.651Z,2.4
2018-03-22T09:05:27.390Z,2.46
2018-03-22T09:06:37.395Z,2.5
2018-03-22T09:07:47.124Z,2.52
2018-03-22T09:08:57.117Z,2.54
2018-03-22T09:10:06.841Z,2.64
2018-03-22T09:11:16.038Z,2.73
2018-03-22T09:12:25.501Z,2.75
2018-03-22T09:13:35.499Z,2.77
2018-03-22T09:14:45.235Z,2.91
2018-03-22T09:15:55.238Z,2.91
2018-03-22T09:17:05.247Z,2.97
2018-03-22T09:18:15.052Z,2.95
2018-03-22T09:19:25.053Z,3
2018-03-22T09:20:34.807Z,3.03
2018-03-22T09:21:44.275Z,3.15
2018-03-22T09:22:54.013Z,3.26
2018-03-22T09:24:03.738Z,3.34
2018-03-22T09:25:13.472Z,3.4
2018-03-22T09:26:22.935Z,3.55
2018-03-22T09:27:32.676Z,3.53
2018-03-22T09:28:42.144Z,3.66
2018-03-22T09:29:51.873Z,3.63
2018-03-22T09:31:01.339Z,3.66
2018-03-22T09:32:11.344Z,3.74
2018-03-22T09:33:21.346Z,3.81
2018-03-22T09:34:31.075Z,3.76
2018-03-22T09:35:41.079Z,3.86
2018-03-22T09:36:50.816Z,3.96
2018-03-22T09:38:00.979Z,3.99
2018-03-22T09:39:10.980Z,4.12
2018-03-22T09:40:20.976Z,4.21
2018-03-22T09:41:30.444Z,4.22
2018-03-22T09:42:40.192Z,4.32
2018-03-22T09:43:49.929Z,4.53
2018-03-22T09:44:59.126Z,4.56
2018-03-22T09:46:08.860Z,4.53
2018-03-22T09:47:18.591Z,4.49
2018-03-22T09:48:28.591Z,4.58
2018-03-22T09:49:38.694Z,4.63
2018-03-22T09:50:48.163Z,4.7
2018-03-22T09:51:57.904Z,4.7
2018-03-22T09:53:07.371Z,4.7
2018-03-22T09:54:17.398Z,4.66
2018-03-22T09:55:27.134Z,4.75
2018-03-22T09:56:36.867Z,4.78
2018-03-22T09:57:46.871Z,4.7
2018-03-22T09:58:56.875Z,4.74
2018-03-22T10:00:06.891Z,4.76
2018-03-22T10:01:16.624Z,4.79
2018-03-22T10:02:26.093Z,4.74
2018-03-22T10:03:36.140Z,4.74
2018-03-22T10:04:46.152Z,4.71
2018-03-22T10:05:56.156Z,4.79
2018-03-22T10:07:05.621Z,4.98
2018-03-22T10:08:15.086Z,4.97
2018-03-22T10:09:24.286Z,4.89
2018-03-22T10:10:34.299Z,4.95
2018-03-22T10:11:44.032Z,4.98
2018-03-22T10:12:53.768Z,4.86
2018-03-22T10:14:03.512Z,4.83
2018-03-22T10:15:13.248Z,4.82
2018-03-22T10:16:23.097Z,4.78
2018-03-22T10:17:32.265Z,4.82
2018-03-22T10:18:42.100Z,4.71
2018-03-22T10:19:51.308Z,4.86
2018-03-22T10:21:01.043Z,5.01
2018-03-22T10:22:10.528Z,5.02
2018-03-22T10:23:19.729Z,5.18
2018-03-22T10:24:29.196Z,5.15
2018-03-22T10:25:39.195Z,5.22
2018-03-22T10:26:49.194Z,5.33
2018-03-22T10:27:58.930Z,5.37
2018-03-22T10:29:08.403Z,5.54
2018-03-22T10:30:18.138Z,5.61
2018-03-22T10:31:28.141Z,5.61
2018-03-22T10:32:37.617Z,5.62
2018-03-22T10:33:47.354Z,5.61
2018-03-22T10:34:56.822Z,5.81
2018-03-22T10:36:06.871Z,5.77
2018-03-22T10:37:16.075Z,5.81
2018-03-22T10:38:26.088Z,5.81
2018-03-22T10:39:36.114Z,5.87
2018-03-22T10:40:45.846Z,5.9
2018-03-22T10:41:55.653Z,5.98
2018-03-22T10:43:05.750Z,5.98
2018-03-22T10:44:15.485Z,6.02
2018-03-22T10:45:25.542Z,6.09
2018-03-22T10:46:35.550Z,6.07
2018-03-22T10:47:45.290Z,6.12
2018-03-22T10:48:55.304Z,6.09
2018-03-22T10:50:05.315Z,6.09
2018-03-22T10:51:15.401Z,6.15
2018-03-22T10:52:25.138Z,6.12
2018-03-22T10:53:35.136Z,6.12
2018-03-22T10:54:44.603Z,6.15
2018-03-22T10:55:54.345Z,6.26
2018-03-22T10:57:03.811Z,6.16
2018-03-22T10:58:13.556Z,6.25
2018-03-22T10:59:23.390Z,6.32
2018-03-22T11:00:32.853Z,6.31
2018-03-22T11:01:42.860Z,6.44
2018-03-22T11:02:52.595Z,6.49
2018-03-22T11:04:02.328Z,6.53
2018-03-22T11:05:12.073Z,6.54
2018-03-22T11:06:21.807Z,6.71
2018-03-22T11:07:31.555Z,6.72
2018-03-22T11:08:41.561Z,6.77
2018-03-22T11:09:51.295Z,6.82
2018-03-22T11:11:01.027Z,6.97
2018-03-22T11:12:10.501Z,7.19
2018-03-22T11:13:19.968Z,7.39
2018-03-22T11:14:29.436Z,7.81
2018-03-22T11:15:39.442Z,8.23
2018-03-22T11:16:49.449Z,8.59
2018-03-22T11:17:59.246Z,8.81
2018-03-22T11:19:08.721Z,9.21
2018-03-22T11:20:18.725Z,9.31
2018-03-22T11:21:28.468Z,9.67
2018-03-22T11:22:37.948Z,10.07
2018-03-22T11:23:47.966Z,10.55
2018-03-22T11:24:57.974Z,10.9
2018-03-22T11:26:06.916Z,11.19
2018-03-22T11:27:16.933Z,11.44
2018-03-22T11:28:26.678Z,11.68
2018-03-22T11:29:36.687Z,11.99
2018-03-22T11:30:46.162Z,12.18
2018-03-22T11:31:55.647Z,12.29
2018-03-22T11:33:05.123Z,12.17
2018-03-22T11:34:15.187Z,12.36
2018-03-22T11:35:24.941Z,12.51
2018-03-22T11:36:34.967Z,12.9
2018-03-22T11:37:44.979Z,13.13
2018-03-22T11:38:54.456Z,13.26
2018-03-22T11:40:04.470Z,13.49
2018-03-22T11:41:14.486Z,13.6
2018-03-22T11:42:24.321Z,13.64
2018-03-22T11:43:33.786Z,13.75
2018-03-22T11:44:43.536Z,13.79
2018-03-22T11:45:53.532Z,13.86
2018-03-22T11:47:03.020Z,14.05
2018-03-22T11:48:11.696Z,14.2
2018-03-22T11:49:21.714Z,14.28
2018-03-22T11:50:31.731Z,14.4
2018-03-22T11:51:41.741Z,14.73
2018-03-22T11:52:51.490Z,14.96
2018-03-22T11:54:00.970Z,14.89
2018-03-22T11:55:10.745Z,14.9
2018-03-22T11:56:20.764Z,14.96
2018-03-22T11:57:30.263Z,14.92
2018-03-22T11:58:40.282Z,15.08
2018-03-22T11:59:50.035Z,15.33
2018-03-22T12:01:00.052Z,15.57
2018-03-22T12:02:09.848Z,15.76
2018-03-22T12:03:19.871Z,16
2018-03-22T12:04:29.672Z,16.22
2018-03-22T12:05:39.219Z,16.41
2018-03-22T12:06:48.434Z,16.59
2018-03-22T12:07:58.453Z,17.12
2018-03-22T12:09:08.045Z,17.53
2018-03-22T12:10:17.526Z,17.93
2018-03-22T12:11:27.539Z,18.39
2018-03-22T12:12:37.461Z,18.86
2018-03-22T12:13:47.482Z,19.37
2018-03-22T12:14:57.293Z,19.56
2018-03-22T12:16:06.781Z,19.7
2018-03-22T12:17:16.541Z,19.27
2018-03-22T12:18:26.296Z,19.09
2018-03-22T12:19:36.318Z,19.42
2018-03-22T12:20:46.073Z,19.2
2018-03-22T12:21:55.839Z,18.98
2018-03-22T12:23:05.859Z,18.64
2018-03-22T12:24:15.893Z,18.55
2018-03-22T12:25:25.377Z,18.64
2018-03-22T12:26:35.445Z,18.74
2018-03-22T12:27:44.665Z,19.24
2018-03-22T12:28:54.689Z,19.17
2018-03-22T12:30:04.706Z,19.44
2018-03-22T12:31:14.459Z,19.57
2018-03-22T12:32:24.349Z,19.89
2018-03-22T12:33:34.194Z,20.36
2018-03-22T12:34:44.218Z,20.83
2018-03-22T12:35:53.973Z,21.08
2018-03-22T12:37:03.994Z,21.47
2018-03-22T12:38:14.080Z,21.68
2018-03-22T12:39:23.564Z,21.96
2018-03-22T12:40:33.063Z,22.46
2018-03-22T12:41:42.814Z,22.47
2018-03-22T12:42:52.832Z,22.51
2018-03-22T12:44:02.586Z,22.71
2018-03-22T12:45:12.348Z,22.91
2018-03-22T12:46:22.097Z,22.68
2018-03-22T12:47:31.856Z,22.89
2018-03-22T12:48:41.894Z,23.26
2018-03-22T12:49:51.933Z,23.23
2018-03-22T12:51:01.692Z,23.62
2018-03-22T12:52:10.911Z,23.82
2018-03-22T12:53:20.930Z,24
2018-03-22T12:54:30.956Z,24.04
2018-03-22T12:55:41.003Z,24.41
2018-03-22T12:56:50.772Z,24.58
2018-03-22T12:58:00.804Z,24.66
2018-03-22T12:59:10.300Z,24.58
2018-03-22T13:00:20.359Z,24.43
2018-03-22T13:01:30.380Z,23.91
2018-03-22T13:02:40.134Z,23.59
2018-03-22T13:03:49.896Z,23.62
2018-03-22T13:04:59.655Z,23.37
2018-03-22T13:06:08.339Z,23.21
2018-03-22T13:07:17.824Z,22.99
2018-03-22T13:08:27.577Z,23.36
2018-03-22T13:09:37.338Z,23.58
2018-03-22T13:10:47.100Z,23.58
2018-03-22T13:11:56.854Z,23.62
2018-03-22T13:13:06.768Z,23.45
2018-03-22T13:14:16.490Z,23.58
2018-03-22T13:15:25.709Z,23.42
2018-03-22T13:16:34.934Z,23.18
2018-03-22T13:17:44.422Z,23.13
2018-03-22T13:18:54.445Z,22.93
2018-03-22T13:20:04.472Z,22.95
2018-03-22T13:21:14.494Z,22.98
2018-03-22T13:22:24.526Z,23.04
2018-03-22T13:23:34.339Z,22.93
2018-03-22T13:24:43.875Z,22.68
2018-03-22T13:25:53.366Z,22.46
2018-03-22T13:27:02.853Z,22.22
2018-03-22T13:28:12.617Z,22.21
2018-03-22T13:29:22.376Z,22.01
2018-03-22T13:30:32.230Z,21.96
2018-03-22T13:31:42.290Z,21.75
2018-03-22T13:32:52.040Z,21.78
2018-03-22T13:34:02.067Z,21.54
2018-03-22T13:35:11.827Z,21.35
2018-03-22T13:36:21.847Z,20.98
2018-03-22T13:37:31.870Z,20.49
2018-03-22T13:38:41.082Z,20.19
2018-03-22T13:39:50.567Z,19.97
2018-03-22T13:41:00.067Z,19.6
2018-03-22T13:42:09.826Z,19.2
2018-03-22T13:43:19.619Z,18.83
2018-03-22T13:44:29.952Z,18.52
2018-03-22T13:45:39.974Z,18
2018-03-22T13:46:49.725Z,17.68
2018-03-22T13:47:59.798Z,17.46
2018-03-22T13:49:09.819Z,17.32
2018-03-22T13:50:19.861Z,17.12
2018-03-22T13:51:29.345Z,16.87
2018-03-22T13:52:39.140Z,16.77
2018-03-22T13:53:48.906Z,16.64
2018-03-22T13:54:58.789Z,16.62
2018-03-22T13:56:08.000Z,16.46
2018-03-22T13:57:17.475Z,16.43
2018-03-22T13:58:26.955Z,16.16
2018-03-22T13:59:36.738Z,16.34
2018-03-22T14:00:46.492Z,16.44
2018-03-22T14:01:56.513Z,16.29
2018-03-22T14:03:06.560Z,16.21
2018-03-22T14:04:16.311Z,16.03
2018-03-22T14:05:26.332Z,15.83
2018-03-22T14:06:36.344Z,15.88
2018-03-22T14:07:45.820Z,15.72
2018-03-22T14:08:55.563Z,15.69
2018-03-22T14:10:05.041Z,15.54
2018-03-22T14:11:14.792Z,15.41
2018-03-22T14:12:24.799Z,15.32
2018-03-22T14:13:34.820Z,15.29
2018-03-22T14:14:44.582Z,15.37
2018-03-22T14:15:54.587Z,15.41
2018-03-22T14:17:04.916Z,15.3
2018-03-22T14:18:14.441Z,15.29
2018-03-22T14:19:23.997Z,15.29
2018-03-22T14:20:33.748Z,15.32
2018-03-22T14:21:43.756Z,15.48
2018-03-22T14:22:53.233Z,15.63
2018-03-22T14:24:02.712Z,15.84
2018-03-22T14:25:12.193Z,16.08
2018-03-22T14:26:22.220Z,16.25
2018-03-22T14:27:31.693Z,16.29
2018-03-22T14:28:41.704Z,16.32
2018-03-22T14:29:51.757Z,16.49
2018-03-22T14:31:01.846Z,16.61
2018-03-22T14:32:11.332Z,16.76
2018-03-22T14:33:21.347Z,16.73
2018-03-22T14:34:30.827Z,16.69
2018-03-22T14:35:40.632Z,16.89
2018-03-22T14:36:50.380Z,17.09
2018-03-22T14:38:00.425Z,17.3
2018-03-22T14:39:10.449Z,17.42
2018-03-22T14:40:20.297Z,17.65
2018-03-22T14:41:29.784Z,18
2018-03-22T14:42:39.263Z,18.24
2018-03-22T14:43:49.279Z,18.45
2018-03-22T14:44:59.069Z,18.82
2018-03-22T14:46:08.919Z,19.44
2018-03-22T14:47:18.674Z,19.79
2018-03-22T14:48:28.157Z,20.15
2018-03-22T14:49:38.169Z,20.26
2018-03-22T14:50:47.917Z,20.36
2018-03-22T14:51:57.395Z,20.46
2018-03-22T14:53:06.873Z,20.59
2018-03-22T14:54:16.367Z,20.83
2018-03-22T14:55:25.581Z,21.07
2018-03-22T14:56:35.609Z,21.05
2018-03-22T14:57:45.633Z,20.95
2018-03-22T14:58:55.392Z,21.07
2018-03-22T15:00:04.895Z,21.51
2018-03-22T15:01:14.396Z,21.77
2018-03-22T15:02:23.617Z,22.15
2018-03-22T15:03:33.381Z,22.25
2018-03-22T15:04:43.157Z,22.18
2018-03-22T15:05:52.646Z,22.51
2018-03-22T15:07:02.129Z,22.62
2018-03-22T15:08:10.807Z,22.89
2018-03-22T15:09:19.489Z,23.04
2018-03-22T15:10:29.299Z,23.13
2018-03-22T15:11:39.675Z,23.14